Time;durP1;ratioP1;P1;durP2;ratioP2;P2;SDS_P1;SDS_P2;PMS_P1;PMS_P2;Temp;Humidity;BMP_temperature;BMP_pressure;BME280_temperature;BME280_humidity;BME280_pressure;Samples;Min_cycle;Max_cycle;Signal;HPM_P1;HPM_P2
2023/08/25 06:35:28;;;;;;;25.07;20.17;;;;;;;;;;6195271;22;1374817;-87
2023/08/25 06:37:55;;;;;;;25.42;21.83;;;;;;;;;;6247951;22;20024;-86
2023/08/25 06:40:21;;;;;;;31.50;23.38;;;;;;;;;;6244621;23;20035;-86
2023/08/25 06:42:53;;;;;;;28.95;23.13;;;;;;;;;;6244832;23;20026;-86
2023/08/25 06:45:22;;;;;;;33.13;23.88;;;;;;;;;;6245268;23;20087;-87
2023/08/25 06:47:50;;;;;;;31.98;22.40;;;;;;;;;;6219834;23;20016;-87
2023/08/25 06:50:19;;;;;;;29.88;23.50;;;;;;;;;;6221092;23;20018;-86
2023/08/25 06:52:45;;;;;;;37.30;24.40;;;;;;;;;;6246541;23;20067;-86
2023/08/25 06:55:11;;;;;;;35.42;25.23;;;;;;;;;;6249603;23;20441;-86
2023/08/25 06:57:37;;;;;;;34.95;24.98;;;;;;;;;;6247782;23;20031;-86
2023/08/25 07:00:06;;;;;;;40.78;25.23;;;;;;;;;;6221644;23;20019;-86
2023/08/25 07:02:32;;;;;;;35.15;23.98;;;;;;;;;;6219750;23;20022;-86
2023/08/25 07:04:58;;;;;;;31.85;22.83;;;;;;;;;;6249998;22;20026;-86
2023/08/25 07:07:28;;;;;;;36.00;23.38;;;;;;;;;;6222578;23;20079;-86
2023/08/25 07:09:54;;;;;;;32.78;22.60;;;;;;;;;;6248640;23;20020;-86
2023/08/25 07:12:21;;;;;;;37.28;23.75;;;;;;;;;;6224924;23;20449;-86
2023/08/25 07:14:49;;;;;;;34.13;23.13;;;;;;;;;;6222258;23;20026;-86
2023/08/25 07:17:16;;;;;;;38.13;23.48;;;;;;;;;;6246354;23;20020;-86
2023/08/25 07:19:42;;;;;;;28.48;21.33;;;;;;;;;;6222644;23;20324;-86
2023/08/25 07:22:09;;;;;;;35.67;22.77;;;;;;;;;;6224830;23;20116;-86
2023/08/25 07:24:35;;;;;;;31.88;21.60;;;;;;;;;;6222467;23;20452;-86
2023/08/25 07:27:01;;;;;;;36.85;22.77;;;;;;;;;;6222872;23;20047;-86
2023/08/25 07:29:27;;;;;;;37.15;22.13;;;;;;;;;;6247016;23;20023;-86
2023/08/25 07:31:54;;;;;;;33.78;22.33;;;;;;;;;;6222512;23;20016;-86
2023/08/25 07:34:20;;;;;;;34.22;21.67;;;;;;;;;;6223084;23;20023;-86
2023/08/25 07:36:46;;;;;;;34.28;20.58;;;;;;;;;;6224211;23;20012;-86
2023/08/25 07:39:15;;;;;;;31.05;20.17;;;;;;;;;;6249480;23;20046;-86
2023/08/25 07:41:41;;;;;;;33.00;20.60;;;;;;;;;;6249169;23;20027;-86
2023/08/25 07:44:10;;;;;;;31.83;21.23;;;;;;;;;;6222797;23;20091;-86
2023/08/25 07:46:38;;;;;;;32.90;21.48;;;;;;;;;;6222507;23;20016;-86
2023/08/25 07:49:06;;;;;;;37.00;20.90;;;;;;;;;;6222195;23;20026;-87
2023/08/25 07:51:32;;;;;;;31.30;20.23;;;;;;;;;;6247003;23;20043;-86
2023/08/25 07:53:58;;;;;;;36.03;20.77;;;;;;;;;;6222829;23;20012;-87
2023/08/25 07:56:25;;;;;;;35.13;20.67;;;;;;;;;;6222789;23;20391;-86
2023/08/25 07:58:54;;;;;;;31.55;20.40;;;;;;;;;;6248012;23;20087;-86
2023/08/25 08:01:20;;;;;;;35.70;21.60;;;;;;;;;;6253742;23;20019;-86
2023/08/25 08:03:47;;;;;;;31.42;20.25;;;;;;;;;;6226839;23;20020;-86
2023/08/25 08:06:16;;;;;;;32.03;20.27;;;;;;;;;;6250212;23;20045;-86
2023/08/25 08:08:43;;;;;;;27.08;20.02;;;;;;;;;;6248537;23;20019;-86
2023/08/25 08:11:10;;;;;;;30.70;20.52;;;;;;;;;;6221933;23;20012;-86
2023/08/25 08:13:39;;;;;;;29.83;20.42;;;;;;;;;;6222180;23;20016;-86
2023/08/25 08:16:10;;;;;;;29.42;20.17;;;;;;;;;;6223649;23;20019;-86
2023/08/25 08:18:36;;;;;;;29.38;21.20;;;;;;;;;;6223174;23;20016;-86
2023/08/25 08:21:03;;;;;;;31.20;20.15;;;;;;;;;;6247676;23;20097;-87
2023/08/25 08:23:29;;;;;;;32.40;20.52;;;;;;;;;;6223484;23;20020;-86
2023/08/25 08:25:55;;;;;;;31.00;20.80;;;;;;;;;;6248355;23;20449;-86
2023/08/25 08:28:22;;;;;;;27.92;19.73;;;;;;;;;;6248897;23;20046;-86
2023/08/25 08:30:51;;;;;;;28.00;20.20;;;;;;;;;;6249326;23;20016;-86
2023/08/25 08:33:18;;;;;;;31.60;21.15;;;;;;;;;;6223776;23;20039;-86
2023/08/25 08:35:47;;;;;;;33.25;20.80;;;;;;;;;;6225471;23;20020;-86
2023/08/25 08:38:16;;;;;;;28.92;20.90;;;;;;;;;;6224657;23;20020;-86
2023/08/25 08:40:45;;;;;;;31.25;20.27;;;;;;;;;;6248745;23;20091;-86
2023/08/25 08:43:14;;;;;;;32.92;21.08;;;;;;;;;;6251287;23;20497;-86
2023/08/25 08:45:43;;;;;;;29.10;20.00;;;;;;;;;;6224235;23;20070;-86
2023/08/25 08:48:12;;;;;;;26.75;19.60;;;;;;;;;;6250287;23;20019;-86
2023/08/25 08:50:39;;;;;;;29.27;20.23;;;;;;;;;;6225148;23;20061;-86
2023/08/25 08:53:06;;;;;;;25.42;19.23;;;;;;;;;;6250786;23;20441;-86
2023/08/25 08:55:34;;;;;;;29.58;19.67;;;;;;;;;;6225050;23;20058;-86
2023/08/25 08:58:03;;;;;;;27.70;18.67;;;;;;;;;;6223407;23;20099;-86
2023/08/25 09:00:30;;;;;;;28.67;19.23;;;;;;;;;;6225043;23;20066;-86
2023/08/25 09:02:58;;;;;;;29.90;21.05;;;;;;;;;;6221626;23;20020;-86
2023/08/25 09:05:28;;;;;;;27.05;19.95;;;;;;;;;;6246609;23;20330;-86
2023/08/25 09:08:00;;;;;;;31.98;19.95;;;;;;;;;;6221360;23;20078;-86
2023/08/25 09:10:29;;;;;;;26.73;19.88;;;;;;;;;;6222078;23;20078;-86
2023/08/25 09:12:59;;;;;;;27.90;19.60;;;;;;;;;;6244931;23;20016;-87
2023/08/25 09:15:26;;;;;;;28.40;19.63;;;;;;;;;;6220788;23;20023;-87
2023/08/25 09:18:06;;;;;;;30.08;20.20;;;;;;;;;;6246415;23;20103;-87
2023/08/25 09:20:34;;;;;;;31.13;21.25;;;;;;;;;;6246818;23;20020;-87
2023/08/25 09:23:08;;;;;;;28.40;20.67;;;;;;;;;;6245888;23;20052;-88
2023/08/25 09:25:34;;;;;;;30.52;21.25;;;;;;;;;;6221508;23;20087;-87
2023/08/25 09:28:04;;;;;;;29.15;20.95;;;;;;;;;;6220370;23;20068;-87
2023/08/25 09:30:37;;;;;;;28.90;20.83;;;;;;;;;;6220589;23;20453;-87
2023/08/25 09:33:07;;;;;;;30.10;20.95;;;;;;;;;;6221176;23;20067;-87
2023/08/25 09:35:54;;;;;;;26.65;19.27;;;;;;;;;;6245351;23;20020;-86
2023/08/25 09:38:23;;;;;;;27.20;20.38;;;;;;;;;;6224605;23;20027;-86
2023/08/25 09:40:49;;;;;;;27.02;20.38;;;;;;;;;;6220893;23;20027;-87
2023/08/25 09:43:30;;;;;;;29.58;21.05;;;;;;;;;;6220937;23;20023;-87
2023/08/25 09:45:56;;;;;;;30.40;21.05;;;;;;;;;;6221290;23;20008;-87
2023/08/25 09:48:26;;;;;;;26.88;20.00;;;;;;;;;;6221161;23;20043;-87
2023/08/25 09:50:52;;;;;;;29.20;19.55;;;;;;;;;;6220594;23;20123;-87
2023/08/25 09:53:19;;;;;;;27.63;20.55;;;;;;;;;;6246725;23;20012;-88
2023/08/25 09:59:14;;;;;;;28.55;19.58;;;;;;;;;;6184202;23;20380;-89
2023/08/25 10:01:57;;;;;;;25.60;19.60;;;;;;;;;;6210344;23;20445;-88
2023/08/25 10:04:34;;;;;;;31.50;20.92;;;;;;;;;;6227381;23;20020;-88
2023/08/25 10:07:02;;;;;;;27.25;20.50;;;;;;;;;;6234040;23;20441;-89
2023/08/25 10:09:36;;;;;;;25.27;18.85;;;;;;;;;;6225512;23;20020;-89
2023/08/25 10:28:38;;;;;;;28.92;17.55;;;;;;;;;;6070724;23;20054;-89
2023/08/25 10:34:41;;;;;;;26.57;18.57;;;;;;;;;;6092499;23;20074;-89
2023/08/25 10:37:24;;;;;;;25.30;18.00;;;;;;;;;;6072803;23;20022;-88
2023/08/25 10:43:30;;;;;;;28.10;20.30;;;;;;;;;;5964560;23;20060;-89
2023/08/25 10:46:35;;;;;;;26.83;19.52;;;;;;;;;;5936951;24;20023;-89
2023/08/25 10:49:19;;;;;;;26.95;20.15;;;;;;;;;;5930938;24;20096;-87
2023/08/25 10:55:41;;;;;;;28.15;20.70;;;;;;;;;;5785337;24;20023;-88
2023/08/25 10:58:34;;;;;;;27.17;19.70;;;;;;;;;;5736250;24;20099;-88
2023/08/25 11:04:30;;;;;;;30.80;20.85;;;;;;;;;;5898861;24;20485;-89
2023/08/25 11:07:58;;;;;;;;;;;;;;;;;;;;;
2023/08/25 11:14:49;;;;;;;;;;;;;;;;;;;;;
2023/08/25 11:21:30;;;;;;;27.90;19.45;;;;;;;;;;5837764;24;20057;-89
2023/08/25 11:24:07;;;;;;;28.08;19.92;;;;;;;;;;5800121;24;20065;-90
2023/08/25 11:26:59;;;;;;;;;;;;;;;;;;;;;
2023/08/25 11:29:34;;;;;;;29.30;19.45;;;;;;;;;;5843321;24;20022;-89
2023/08/25 11:35:14;;;;;;;27.35;20.38;;;;;;;;;;5954776;23;20065;-91
2023/08/25 11:38:02;;;;;;;;;;;;;;;;;;;;;
2023/08/25 11:40:39;;;;;;;28.83;20.30;;;;;;;;;;6046840;23;20019;-88
2023/08/25 11:43:46;;;;;;;;;;;;;;;;;;;;;
2023/08/25 11:46:16;;;;;;;29.42;18.77;;;;;;;;;;6123823;23;20097;-87
2023/08/25 11:52:23;;;;;;;28.70;19.42;;;;;;;;;;6119145;23;20032;-90
2023/08/25 11:58:57;;;;;;;22.17;17.92;;;;;;;;;;6095664;23;20142;-89
2023/08/25 13:23:52;;;;;;;;;;;;;;;;;;;;;
2023/08/25 13:26:43;;;;;;;15.90;12.88;;;;;;;;;;6155054;23;20024;-87
2023/08/25 13:29:10;;;;;;;14.63;13.02;;;;;;;;;;6106776;23;20498;-87
2023/08/25 13:31:36;;;;;;;14.77;13.18;;;;;;;;;;6105731;23;20021;-88
2023/08/25 13:34:05;;;;;;;17.15;13.13;;;;;;;;;;6160988;23;20019;-88
2023/08/25 13:37:02;;;;;;;;;;;;;;;;;;;;;
2023/08/25 13:39:38;;;;;;;27.60;15.38;;;;;;;;;;6220795;23;20022;-87
2023/08/25 13:42:24;;;;;;;18.80;15.48;;;;;;;;;;6222081;23;20091;-87
2023/08/25 13:44:51;;;;;;;21.90;16.10;;;;;;;;;;6220638;23;20119;-87
2023/08/25 13:47:22;;;;;;;20.42;15.98;;;;;;;;;;6221802;23;20016;-87
2023/08/25 13:49:51;;;;;;;18.13;15.55;;;;;;;;;;6221114;23;20070;-87
2023/08/25 13:52:20;;;;;;;17.77;15.10;;;;;;;;;;6220725;23;20020;-87
2023/08/25 13:54:49;;;;;;;17.25;14.50;;;;;;;;;;6218944;23;20023;-87
2023/08/25 13:57:15;;;;;;;17.90;13.65;;;;;;;;;;6220799;23;20016;-87
2023/08/25 13:59:44;;;;;;;12.93;11.10;;;;;;;;;;6220545;23;20016;-87
2023/08/25 14:02:27;;;;;;;12.43;9.55;;;;;;;;;;6195407;23;20027;-87
2023/08/25 14:04:53;;;;;;;12.00;9.32;;;;;;;;;;6196004;23;20020;-89
2023/08/25 14:07:27;;;;;;;12.73;10.18;;;;;;;;;;6196957;23;20096;-86
2023/08/25 14:10:01;;;;;;;17.20;10.95;;;;;;;;;;6195043;23;20023;-88
2023/08/25 14:12:28;;;;;;;14.35;12.45;;;;;;;;;;6195555;23;20373;-87
2023/08/25 14:14:54;;;;;;;17.13;13.13;;;;;;;;;;6192565;23;20365;-87
2023/08/25 14:17:23;;;;;;;19.35;14.68;;;;;;;;;;6206646;23;20020;-87
2023/08/25 14:19:52;;;;;;;19.67;13.88;;;;;;;;;;6200212;23;20024;-87
2023/08/25 14:22:21;;;;;;;15.57;12.32;;;;;;;;;;6222229;23;20016;-87
2023/08/25 14:24:54;;;;;;;15.60;11.40;;;;;;;;;;6202005;23;20456;-87
2023/08/25 14:27:32;;;;;;;15.20;12.80;;;;;;;;;;6192107;23;20062;-89
2023/08/25 14:29:59;;;;;;;11.10;9.52;;;;;;;;;;6163390;23;20366;-88
2023/08/25 14:32:27;;;;;;;12.63;9.57;;;;;;;;;;6165695;23;20016;-88
2023/08/25 14:35:14;;;;;;;13.07;10.63;;;;;;;;;;6167504;23;20024;-90
2023/08/25 14:37:55;;;;;;;13.90;10.73;;;;;;;;;;6187969;23;20052;-89
2023/08/25 14:40:21;;;;;;;13.57;10.40;;;;;;;;;;6165369;23;20017;-87
2023/08/25 14:42:47;;;;;;;11.68;9.95;;;;;;;;;;6191361;23;20052;-87
2023/08/25 14:45:13;;;;;;;13.93;11.57;;;;;;;;;;6165215;23;20017;-87
2023/08/25 14:47:47;;;;;;;12.65;9.73;;;;;;;;;;6166209;23;20023;-88
2023/08/25 14:50:16;;;;;;;13.70;11.45;;;;;;;;;;6167453;23;20016;-87
2023/08/25 14:52:45;;;;;;;13.88;10.25;;;;;;;;;;6165622;23;20023;-87
2023/08/25 14:55:11;;;;;;;13.75;11.73;;;;;;;;;;6165655;23;20429;-88
2023/08/25 14:57:37;;;;;;;14.02;10.82;;;;;;;;;;6164985;23;20020;-87
2023/08/25 15:00:04;;;;;;;12.85;10.90;;;;;;;;;;6191023;23;20023;-88
2023/08/25 15:02:30;;;;;;;18.75;12.07;;;;;;;;;;6190102;23;20417;-89
2023/08/25 15:04:56;;;;;;;15.10;10.98;;;;;;;;;;6190088;23;20374;-87
2023/08/25 15:07:23;;;;;;;13.82;11.93;;;;;;;;;;6190211;23;20016;-87
2023/08/25 15:09:51;;;;;;;15.10;12.00;;;;;;;;;;6165122;23;20020;-88
2023/08/25 15:12:40;;;;;;;;;;;;;;;;;;;;;
2023/08/25 15:15:44;;;;;;;12.80;11.43;;;;;;;;;;6186735;23;20051;-89
2023/08/25 15:18:21;;;;;;;;;;;;;;;;;;6020433;23;20060;-88
2023/08/25 15:21:00;;;;;;;11.68;10.48;;;;;;;;;;6043015;23;20232;-88
2023/08/25 15:30:04;;;;;;;12.82;11.52;;;;;;;;;;6071046;23;20061;-89
2023/08/25 15:32:31;;;;;;;16.23;12.55;;;;;;;;;;6105387;23;20351;-88
2023/08/25 15:38:23;;;;;;;17.73;15.50;;;;;;;;;;6102283;23;20022;-88
2023/08/25 15:40:55;;;;;;;17.10;13.48;;;;;;;;;;6077362;23;20014;-87
2023/08/25 15:43:52;;;;;;;15.15;12.65;;;;;;;;;;6077649;23;20029;-87
2023/08/25 15:46:18;;;;;;;15.52;11.90;;;;;;;;;;6077229;23;20017;-87
2023/08/25 15:51:51;;;;;;;15.68;12.00;;;;;;;;;;6096828;23;20026;-87
2023/08/25 15:54:17;;;;;;;15.88;11.73;;;;;;;;;;6088637;23;20013;-88
2023/08/25 15:56:56;;;;;;;13.73;11.50;;;;;;;;;;6160305;23;20024;-88
2023/08/25 15:59:25;;;;;;;14.80;11.93;;;;;;;;;;6164294;23;20013;-88
2023/08/25 16:01:56;;;;;;;16.27;11.73;;;;;;;;;;6165066;23;20096;-89
2023/08/25 16:04:28;;;;;;;13.30;11.90;;;;;;;;;;6164924;23;20016;-89
2023/08/25 16:07:00;;;;;;;14.68;12.18;;;;;;;;;;6189267;23;20027;-88
2023/08/25 16:09:32;;;;;;;11.70;9.00;;;;;;;;;;6165915;23;20068;-87
2023/08/25 16:11:58;;;;;;;12.55;10.40;;;;;;;;;;6163863;23;20020;-85
2023/08/25 16:14:25;;;;;;;14.75;12.20;;;;;;;;;;6188616;23;20394;-86
2023/08/25 16:16:54;;;;;;;16.15;10.68;;;;;;;;;;6164091;23;20052;-87
2023/08/25 16:19:23;;;;;;;13.30;10.80;;;;;;;;;;6164634;23;20449;-87
2023/08/25 16:21:57;;;;;;;10.23;9.02;;;;;;;;;;6191544;23;20354;-87
2023/08/25 16:24:49;;;;;;;;;;;;;;;;;;;;;
2023/08/25 16:27:42;;;;;;;13.60;10.93;;;;;;;;;;6222610;23;20110;-87
2023/08/25 16:30:21;;;;;;;13.73;11.07;;;;;;;;;;6165177;23;20016;-87
2023/08/25 16:33:06;;;;;;;13.68;10.05;;;;;;;;;;6215542;23;20024;-87
2023/08/25 16:35:33;;;;;;;12.73;11.03;;;;;;;;;;6163902;23;20017;-86
2023/08/25 16:38:02;;;;;;;13.25;11.10;;;;;;;;;;6188937;23;20432;-86
2023/08/25 16:41:06;;;;;;;14.93;11.05;;;;;;;;;;6149143;23;20021;-86
2023/08/25 16:43:49;;;;;;;12.75;10.63;;;;;;;;;;6047624;23;20029;-86
2023/08/25 16:46:21;;;;;;;11.73;10.50;;;;;;;;;;6054971;23;20424;-88
2023/08/25 17:06:06;;;;;;;11.80;9.27;;;;;;;;;;6010601;23;20022;-87
2023/08/25 17:18:06;;;;;;;12.85;9.57;;;;;;;;;;5935257;23;20036;-87
2023/08/25 17:20:32;;;;;;;17.92;11.13;;;;;;;;;;6038201;23;20019;-87
2023/08/25 17:22:58;;;;;;;12.13;10.63;;;;;;;;;;6014648;23;20034;-86
2023/08/25 17:25:24;;;;;;;12.10;10.23;;;;;;;;;;6044964;23;20388;-88
2023/08/25 17:27:51;;;;;;;12.88;10.57;;;;;;;;;;6043348;23;20456;-88
2023/08/25 17:30:34;;;;;;;13.43;10.20;;;;;;;;;;6043060;23;20050;-88
2023/08/25 17:33:13;;;;;;;12.27;10.35;;;;;;;;;;6089091;23;20015;-88
2023/08/25 17:35:49;;;;;;;12.73;10.27;;;;;;;;;;6048970;23;20029;-88
2023/08/25 17:38:32;;;;;;;14.20;11.25;;;;;;;;;;6071669;23;20014;-85
2023/08/25 17:41:06;;;;;;;14.18;11.20;;;;;;;;;;6099460;23;20493;-85
2023/08/25 17:43:52;;;;;;;15.13;12.07;;;;;;;;;;6076673;23;20073;-86
2023/08/25 17:46:24;;;;;;;14.48;11.63;;;;;;;;;;6199984;23;20114;-86
2023/08/25 17:52:35;;;;;;;16.55;12.73;;;;;;;;;;6247039;23;20028;-86
2023/08/25 17:58:04;;;;;;;15.32;13.60;;;;;;;;;;6247790;23;20020;-86
2023/08/25 18:03:33;;;;;;;14.20;12.52;;;;;;;;;;6204017;23;20020;-85
2023/08/25 18:06:29;;;;;;;17.58;13.32;;;;;;;;;;6194501;23;20023;-85
2023/08/25 18:09:04;;;;;;;14.70;11.75;;;;;;;;;;6219014;23;20012;-85
